Austin, TX (78759)

12:24 AM CDT on August 29, 2016 (GMT -0500)
Northwest Estates | | Change Station

Elev 774 ft 30.39 °N, 97.75 °W | Updated 3 seconds ago

Clear
Clear
73.2 °F
Feels Like 73.2 °F
N
0.0
Wind Variable Wind from SE
Gusts 0.0 mph

Today
High -- | Low -- °F
--% Chance of Precip.
Yesterday
High -- | Low -- °F
Precip. -- in
Pressure 29.99 in
Visibility 10.0 miles
Clouds Clear
Dew Point 72 °F
Humidity 95%
Rainfall 0.00 in
Snow Depth Not available.
7:06 AM 7:56 PM
Waning Crescent, 11% visible
METAR KATT 290451Z AUTO 00000KT 10SM CLR 24/22 A3002 RMK AO2 SLP153 T02390222
Pressure 29.99 in
Visibility 10.0 miles
Clouds Clear
Dew Point 72 °F
Humidity 95%
Rainfall 0.00 in
Snow Depth Not available.
7:06 AM 7:56 PM
Waning Crescent, 11% visible
METAR KATT 290451Z AUTO 00000KT 10SM CLR 24/22 A3002 RMK AO2 SLP153 T02390222

10-Day Weather Forecast

Almanac

Astronomy

Aug. 29, 2016 Rise Set
Actual Time
Civil Twilight
Nautical Twilight
Astronomical Twilight
Moon
Length of Visible Light
Length of Day
Tomorrow will be .
, % of the Moon is Illuminated

Today's Extremes

State Highs State Lows

Community

WunderPhotos

Upload Photos

1,935,800 photos uploaded!

WunderBlog® & News

Nearby

Air Quality

  Air Quality AQ Index Pollutant
Not available.

Snow Depth

Station Depth Elevation

Earthquake Activity

City Distance Mag. Time & Date
Minimum magnitude displayed is 2.5.

Coastal Water Temperatures

Place Temperature

Stations

Nearby Weather Stations

Station Location Temp. Windchill Dew Point Humidity Wind Precip. Elev Updated Type
                   

Watches & Warnings

There are currently no watches in effect.